createdAt,value
2023-03-03T00:01:19.578Z,31.58
2023-03-03T00:06:15.933Z,27.58
2023-03-03T00:11:12.477Z,28.45
2023-03-03T00:16:25.475Z,28.85
2023-03-03T00:21:41.825Z,24.17
2023-03-03T00:26:39.953Z,26.63
2023-03-03T00:31:36.540Z,28.77
2023-03-03T00:36:40.700Z,26.98
2023-03-03T00:41:37.973Z,27.77
2023-03-03T00:46:37.081Z,30.85
2023-03-03T00:51:36.002Z,28.38
2023-03-03T00:56:32.474Z,33.78
2023-03-03T01:01:28.796Z,31.48
2023-03-03T01:06:25.166Z,35.28
2023-03-03T01:11:24.551Z,36.15
2023-03-03T01:16:21.497Z,33.25
2023-03-03T01:21:18.507Z,29.92
2023-03-03T01:26:15.074Z,37.28
2023-03-03T01:31:12.684Z,41.65
2023-03-03T01:36:09.321Z,41.05
2023-03-03T01:41:06.111Z,49.08
2023-03-03T01:46:02.371Z,48.55
2023-03-03T01:51:32.358Z,49.33
2023-03-03T01:56:29.450Z,51.22
2023-03-03T02:01:28.498Z,55.50
2023-03-03T02:06:35.431Z,47.47
2023-03-03T02:11:34.547Z,54.13
2023-03-03T02:16:31.101Z,53.97
2023-03-03T02:21:28.073Z,50.80
2023-03-03T02:26:27.138Z,46.22
2023-03-03T02:31:27.155Z,48.30
2023-03-03T02:36:26.685Z,52.83
2023-03-03T02:41:41.082Z,56.35
2023-03-03T02:46:43.103Z,47.25
2023-03-03T02:51:40.483Z,45.58
2023-03-03T02:56:37.084Z,52.50
2023-03-03T03:01:37.014Z,49.33
2023-03-03T03:06:33.565Z,50.25
2023-03-03T03:11:29.870Z,58.22
2023-03-03T03:16:26.334Z,55.92
2023-03-03T03:21:22.999Z,56.65
2023-03-03T03:26:21.046Z,56.22
2023-03-03T03:31:18.733Z,51.97
2023-03-03T03:36:15.483Z,46.80
2023-03-03T03:41:13.358Z,52.17
2023-03-03T03:46:09.678Z,50.45
2023-03-03T03:51:06.048Z,47.38
2023-03-03T03:56:02.370Z,53.92
2023-03-03T04:01:07.152Z,63.92
2023-03-03T04:06:03.822Z,61.92
2023-03-03T04:11:00.118Z,59.85
2023-03-03T04:15:56.407Z,58.85
2023-03-03T04:20:54.403Z,58.25
2023-03-03T04:25:50.920Z,58.87
2023-03-03T04:30:47.580Z,63.55
2023-03-03T04:35:43.966Z,53.88
2023-03-03T04:40:41.729Z,56.00
2023-03-03T04:45:38.206Z,57.88
2023-03-03T04:50:34.887Z,68.68
2023-03-03T04:55:31.353Z,52.80
2023-03-03T05:00:27.676Z,66.97
2023-03-03T05:05:24.047Z,58.90
2023-03-03T05:10:21.455Z,66.55
2023-03-03T05:15:17.922Z,63.50
2023-03-03T05:20:14.604Z,67.80
2023-03-03T05:25:12.567Z,61.78
2023-03-03T05:30:10.048Z,71.75
2023-03-03T05:35:06.762Z,75.10
2023-03-03T05:40:04.330Z,83.70
2023-03-03T05:45:00.631Z,83.70
2023-03-03T05:49:57.392Z,82.60
2023-03-03T05:54:53.785Z,86.10
2023-03-03T05:59:50.148Z,97.03
2023-03-03T06:04:46.450Z,83.10
2023-03-03T06:09:42.831Z,85.03
2023-03-03T06:14:39.120Z,86.85
2023-03-03T06:19:36.044Z,98.40
2023-03-03T06:24:32.318Z,99.95
2023-03-03T06:29:29.025Z,96.28
2023-03-03T06:34:25.391Z,85.40
2023-03-03T06:39:21.674Z,86.78
2023-03-03T06:44:18.248Z,74.72
2023-03-03T06:49:14.846Z,71.05
2023-03-03T06:54:26.486Z,78.18
2023-03-03T06:59:23.885Z,81.32
2023-03-03T07:04:33.154Z,74.72
2023-03-03T07:09:30.037Z,63.70
2023-03-03T07:14:26.512Z,69.47
2023-03-03T07:19:33.477Z,77.90
2023-03-03T07:24:31.266Z,71.80
2023-03-03T07:29:33.641Z,81.60
2023-03-03T07:34:59.159Z,91.07
2023-03-03T07:39:55.924Z,88.45
2023-03-03T07:44:54.795Z,76.22
2023-03-03T07:49:53.530Z,73.80
2023-03-03T07:54:49.964Z,69.53
2023-03-03T07:59:51.632Z,72.82
2023-03-03T08:04:52.666Z,96.28
2023-03-03T08:09:51.566Z,91.50
2023-03-03T08:14:48.016Z,90.80
2023-03-03T08:19:44.376Z,82.53
2023-03-03T08:24:41.211Z,78.10
2023-03-03T08:29:37.638Z,83.47
2023-03-03T08:34:33.954Z,76.45
2023-03-03T08:39:30.249Z,66.88
2023-03-03T08:44:26.548Z,71.57
2023-03-03T08:49:22.863Z,68.82
2023-03-03T08:54:19.169Z,61.28
2023-03-03T08:59:15.574Z,70.13
2023-03-03T09:04:11.951Z,53.88
2023-03-03T09:09:08.409Z,49.28
2023-03-03T09:14:13.478Z,57.17
2023-03-03T09:19:22.172Z,59.30
2023-03-03T09:24:25.467Z,50.22
2023-03-03T09:29:29.209Z,52.08
2023-03-03T09:34:38.180Z,56.95
2023-03-03T09:45:08.620Z,59.70
2023-03-03T09:50:22.647Z,45.15
2023-03-03T09:55:37.743Z,51.42
2023-03-03T10:01:03.866Z,50.78
2023-03-03T10:06:21.802Z,45.83
2023-03-03T10:11:28.379Z,48.23
2023-03-03T10:16:43.250Z,42.38
2023-03-03T10:21:49.591Z,48.15
2023-03-03T10:27:12.066Z,55.72
2023-03-03T10:32:09.743Z,46.08
2023-03-03T10:37:40.661Z,42.83
2023-03-03T10:42:53.166Z,33.33
2023-03-03T10:48:34.044Z,40.47
2023-03-03T10:53:42.429Z,35.50
2023-03-03T10:58:45.613Z,41.30
2023-03-03T11:03:51.859Z,40.35
2023-03-03T11:08:58.719Z,43.97
2023-03-03T11:14:12.158Z,40.88
2023-03-03T11:19:36.130Z,39.08
2023-03-03T11:25:03.546Z,35.15
2023-03-03T11:30:18.326Z,36.78
2023-03-03T11:35:43.828Z,50.03
2023-03-03T11:41:22.265Z,42.35
2023-03-03T11:46:25.555Z,52.38
2023-03-03T11:51:38.926Z,41.63
2023-03-03T11:56:43.767Z,41.97
2023-03-03T12:02:13.914Z,44.47
2023-03-03T12:07:32.936Z,40.90
2023-03-03T12:12:38.257Z,45.45
2023-03-03T12:17:56.863Z,41.08
2023-03-03T12:23:05.850Z,39.72
2023-03-03T12:28:09.406Z,46.45
2023-03-03T12:33:39.321Z,45.60
2023-03-03T12:39:09.756Z,49.22
2023-03-03T12:44:34.112Z,41.50
2023-03-03T12:49:57.823Z,40.67
2023-03-03T12:55:11.057Z,42.22
2023-03-03T13:00:21.726Z,38.50
2023-03-03T13:05:23.967Z,44.50
2023-03-03T13:10:36.396Z,37.85
2023-03-03T13:15:51.787Z,41.78
2023-03-03T13:26:03.165Z,36.30
2023-03-03T13:31:13.510Z,30.33
2023-03-03T13:36:15.240Z,34.70
2023-03-03T13:41:23.584Z,29.80
2023-03-03T13:46:43.569Z,34.35
2023-03-03T13:52:01.637Z,30.63
2023-03-03T13:57:30.404Z,33.17
2023-03-03T14:07:41.388Z,32.78
2023-03-03T14:12:48.409Z,29.40
2023-03-03T14:18:23.562Z,29.23
2023-03-03T14:23:25.616Z,23.45
2023-03-03T14:28:28.386Z,27.77
2023-03-03T14:33:32.272Z,25.27
2023-03-03T14:38:31.727Z,27.00
2023-03-03T14:43:38.212Z,28.90
2023-03-03T14:48:50.960Z,27.05
2023-03-03T14:53:50.084Z,26.80
2023-03-03T14:58:46.968Z,27.15
2023-03-03T15:04:03.416Z,28.92
2023-03-03T15:09:35.843Z,26.38
2023-03-03T15:14:43.299Z,20.52
2023-03-03T15:20:11.700Z,22.38
2023-03-03T15:25:43.277Z,28.65
2023-03-03T15:30:53.457Z,23.10
2023-03-03T15:36:02.021Z,22.40
2023-03-03T15:41:21.851Z,22.17
2023-03-03T15:46:42.946Z,29.88
2023-03-03T15:52:13.399Z,25.17
2023-03-03T15:57:21.028Z,23.95
2023-03-03T16:02:21.375Z,24.33
2023-03-03T16:07:31.946Z,32.97
2023-03-03T16:12:49.998Z,31.23
2023-03-03T16:18:14.244Z,33.60
2023-03-03T16:23:39.837Z,33.72
2023-03-03T16:29:05.183Z,39.95
2023-03-03T16:34:12.707Z,34.22
2023-03-03T16:39:21.272Z,36.30
2023-03-03T16:44:38.372Z,39.17
2023-03-03T16:49:47.073Z,34.17
2023-03-03T16:55:12.928Z,37.65
2023-03-03T17:00:17.183Z,45.33
2023-03-03T17:05:39.767Z,36.13
2023-03-03T17:10:52.240Z,38.17
2023-03-03T17:15:59.787Z,33.70
2023-03-03T17:21:01.225Z,31.92
2023-03-03T17:26:17.991Z,32.63
2023-03-03T17:31:32.845Z,35.72
2023-03-03T17:36:50.925Z,32.90
2023-03-03T17:42:10.206Z,42.37
2023-03-03T17:47:16.563Z,36.70
2023-03-03T17:52:46.178Z,38.72
2023-03-03T17:57:49.579Z,32.92
2023-03-03T18:03:19.974Z,40.10
2023-03-03T18:08:34.751Z,35.05
2023-03-03T18:13:50.482Z,38.75
2023-03-03T18:19:17.502Z,33.67
2023-03-03T18:24:26.145Z,33.55
2023-03-03T18:29:27.948Z,32.10
2023-03-03T18:34:40.667Z,38.10
2023-03-03T18:39:44.554Z,41.67
2023-03-03T18:44:41.747Z,35.92
2023-03-03T18:49:47.255Z,32.30
2023-03-03T18:54:43.614Z,38.03
2023-03-03T18:59:48.597Z,35.97
2023-03-03T19:04:55.470Z,45.10
2023-03-03T19:10:01.499Z,42.40
2023-03-03T19:14:57.866Z,49.78
2023-03-03T19:20:14.100Z,46.00
2023-03-03T19:25:19.316Z,38.20
2023-03-03T19:30:29.100Z,43.90
2023-03-03T19:35:53.154Z,46.67
2023-03-03T19:41:40.641Z,36.97
2023-03-03T19:46:58.612Z,42.60
2023-03-03T19:52:08.234Z,40.27
2023-03-03T19:57:11.360Z,40.83
2023-03-03T20:02:13.390Z,40.53
2023-03-03T20:07:29.003Z,39.80
2023-03-03T20:12:50.624Z,38.45
2023-03-03T20:17:58.617Z,39.72
2023-03-03T20:23:07.712Z,48.47
2023-03-03T20:28:45.090Z,38.88
2023-03-03T20:33:52.152Z,36.83
2023-03-03T20:39:09.042Z,36.72
2023-03-03T20:44:11.541Z,43.45
2023-03-03T20:49:31.255Z,37.47
2023-03-03T20:54:56.190Z,40.65
2023-03-03T21:00:20.959Z,43.88
2023-03-03T21:05:20.588Z,40.20
2023-03-03T21:10:24.708Z,38.50
2023-03-03T21:15:25.603Z,35.20
2023-03-03T21:20:40.181Z,37.28
2023-03-03T21:25:45.860Z,40.63
2023-03-03T21:31:11.944Z,36.30
2023-03-03T21:36:09.924Z,33.17
2023-03-03T21:41:08.097Z,30.83
2023-03-03T21:46:05.068Z,36.20
2023-03-03T21:51:02.011Z,36.55
2023-03-03T21:55:58.435Z,31.60
2023-03-03T22:00:54.811Z,35.90
2023-03-03T22:05:51.287Z,35.80
2023-03-03T22:10:50.790Z,36.13
2023-03-03T22:15:48.019Z,37.15
2023-03-03T22:20:46.039Z,37.42
2023-03-03T22:25:42.522Z,30.53
2023-03-03T22:30:38.957Z,37.97
2023-03-03T22:35:35.395Z,40.97
2023-03-03T22:40:33.452Z,32.30
2023-03-03T22:45:29.775Z,30.07
2023-03-03T22:50:26.125Z,37.97
2023-03-03T22:55:22.624Z,41.35
2023-03-03T23:00:20.891Z,30.95
2023-03-03T23:05:17.527Z,32.00
2023-03-03T23:10:14.016Z,42.65
2023-03-03T23:15:13.950Z,33.72
2023-03-03T23:20:13.459Z,30.55
2023-03-03T23:25:11.779Z,34.35
2023-03-03T23:30:09.780Z,31.83
2023-03-03T23:35:06.405Z,34.53
2023-03-03T23:40:02.938Z,37.63
2023-03-03T23:44:59.527Z,41.97
2023-03-03T23:49:55.967Z,36.13
2023-03-03T23:54:53.099Z,28.00
2023-03-03T23:59:49.806Z,37.80
